Time;durP1;ratioP1;P1;durP2;ratioP2;P2;SDS_P1;SDS_P2;PMS_P1;PMS_P2;Temp;Humidity;BMP_temperature;BMP_pressure;BME280_temperature;BME280_humidity;BME280_pressure;Samples;Min_cycle;Max_cycle;Signal;HPM_P1;HPM_P2
2023/03/27 00:01:12;;;;;;;;;;;;;;;;;;5113016;28;1811;-39
2023/03/27 00:03:39;;;;;;;;;;;;;;;;;;5112825;28;1990;-40
2023/03/27 00:06:10;;;;;;;;;;;;;;;;;;5113266;28;1983;-40
2023/03/27 00:08:37;;;;;;;;;;;;;;;;;;5113016;28;2037;-40
2023/03/27 00:11:05;;;;;;;;;;;;;;;;;;5113016;28;2038;-39
2023/03/27 00:13:33;;;;;;;;;;;;;;;;;;5112893;28;2186;-45
2023/03/27 00:16:01;;;;;;;;;;;;;;;;;;5112371;28;1880;-39
2023/03/27 00:18:28;;;;;;;;;;;;;;;;;;5112910;28;1949;-40
2023/03/27 00:20:57;;;;;;;;;;;;;;;;;;5112696;28;2103;-39
2023/03/27 00:23:24;;;;;;;;;;;;;;;;;;5112675;28;1905;-40
2023/03/27 00:25:53;;;;;;;;;;;;;;;;;;5112712;28;1977;-39
2023/03/27 00:28:20;;;;;;;;;;;;;;;;;;5112642;28;1991;-39
2023/03/27 00:30:47;;;;;;;;;;;;;;;;;;5111817;28;1917;-39
2023/03/27 00:33:15;;;;;;;;;;;;;;;;;;5112225;28;2045;-38
2023/03/27 00:35:45;;;;;;;;;;;;;;;;;;5112729;28;1926;-40
2023/03/27 00:38:13;;;;;;;;;;;;;;;;;;5111223;28;2044;-39
2023/03/27 00:40:42;;;;;;;;;;;;;;;;;;5094284;28;1963;-39
2023/03/27 00:43:32;;;;;;;;;;;;;;;;;;5112013;28;2067;-40
2023/03/27 00:46:26;;;;;;;;;;;;;;;;;;5112005;28;1974;-40
2023/03/27 00:48:55;;;;;;;;;;;;;;;;;;5110817;28;2007;-40
2023/03/27 00:51:22;;;;;;;;;;;;;;;;;;5111809;28;2046;-40
2023/03/27 00:53:50;;;;;;;;;;;;;;;;;;5111926;28;2059;-40
2023/03/27 00:56:17;;;;;;;;;;;;;;;;;;5121802;27;2147;-39
2023/03/27 00:58:51;;;;;;;;;;;;;;;;;;5116414;27;2044;-41
2023/03/27 01:01:18;;;;;;;;;;;;;;;;;;5111879;28;1831;-39
2023/03/27 01:03:47;;;;;;;;;;;;;;;;;;5093475;28;2003;-39
2023/03/27 01:06:16;;;;;;;;;;;;;;;;;;5093507;28;1895;-40
2023/03/27 01:08:45;;;;;;;;;;;;;;;;;;5093639;28;2058;-39
2023/03/27 01:11:21;;;;;;;;;;;;;;;;;;5093794;28;2117;-40
2023/03/27 01:14:03;;;;;;;;;;;;;;;;;;5093339;28;2398;-40
2023/03/27 01:16:44;;;;;;;;;;;;;;;;;;5093361;28;1943;-39
2023/03/27 01:19:21;;;;;;;;;;;;;;;;;;5111901;28;1906;-40
2023/03/27 01:21:48;;;;;;;;;;;;;;;;;;5111812;28;1767;-40
2023/03/27 01:24:19;;;;;;;;;;;;;;;;;;5111253;28;1913;-39
2023/03/27 01:27:00;;;;;;;;;;;;;;;;;;5093223;28;2047;-40
2023/03/27 01:29:36;;;;;;;;;;;;;;;;;;5112956;27;2056;-41
2023/03/27 01:32:08;;;;;;;;;;;;;;;;;;5131986;27;1742;-40
2023/03/27 01:34:49;;;;;;;;;;;;;;;;;;5132116;27;1980;-41
2023/03/27 01:37:46;;;;;;;;;;;;;;;;;;5113406;28;2317;-40
2023/03/27 01:40:25;;;;;;;;;;;;;;;;;;5118925;28;1917;-39
2023/03/27 01:43:18;;;;;;;;;;;;;;;;;;5114985;28;1980;-40
2023/03/27 01:45:46;;;;;;;;;;;;;;;;;;5106970;28;2202;-40
2023/03/27 01:48:18;;;;;;;;;;;;;;;;;;5115886;28;1759;-39
2023/03/27 01:50:52;;;;;;;;;;;;;;;;;;5115848;28;2210;-39
2023/03/27 01:53:22;;;;;;;;;;;;;;;;;;5097340;28;1919;-40
2023/03/27 01:55:52;;;;;;;;;;;;;;;;;;5115553;28;1998;-39
2023/03/27 01:58:21;;;;;;;;;;;;;;;;;;5115598;28;1951;-44
2023/03/27 02:00:51;;;;;;;;;;;;;;;;;;5097268;28;2060;-40
2023/03/27 02:03:25;;;;;;;;;;;;;;;;;;5080507;28;2081;-42
2023/03/27 02:05:59;;;;;;;;;;;;;;;;;;5097081;28;2153;-42
2023/03/27 02:08:46;;;;;;;;;;;;;;;;;;5115267;28;1881;-39
2023/03/27 02:11:17;;;;;;;;;;;;;;;;;;5093892;28;1987;-40
2023/03/27 02:13:47;;;;;;;;;;;;;;;;;;5097032;28;2010;-41
2023/03/27 02:16:22;;;;;;;;;;;;;;;;;;5096986;28;1947;-39
2023/03/27 02:18:55;;;;;;;;;;;;;;;;;;5096773;28;2096;-39
2023/03/27 02:21:23;;;;;;;;;;;;;;;;;;5096746;28;2264;-40
2023/03/27 02:23:51;;;;;;;;;;;;;;;;;;5096612;28;2009;-42
2023/03/27 02:26:19;;;;;;;;;;;;;;;;;;5115155;28;2072;-40
2023/03/27 02:28:53;;;;;;;;;;;;;;;;;;5115221;28;1753;-46
2023/03/27 02:31:24;;;;;;;;;;;;;;;;;;5114665;28;2046;-40
2023/03/27 02:34:03;;;;;;;;;;;;;;;;;;5096335;28;2156;-41
2023/03/27 02:36:53;;;;;;;;;;;;;;;;;;5096278;28;2494;-39
2023/03/27 02:39:40;;;;;;;;;;;;;;;;;;5115409;27;2230;-40
2023/03/27 02:42:08;;;;;;;;;;;;;;;;;;5116746;27;1980;-40
2023/03/27 02:44:37;;;;;;;;;;;;;;;;;;5116608;27;1772;-39
2023/03/27 02:47:12;;;;;;;;;;;;;;;;;;5116516;27;1709;-38
2023/03/27 02:49:43;;;;;;;;;;;;;;;;;;5116821;27;2248;-39
2023/03/27 02:52:13;;;;;;;;;;;;;;;;;;5134412;27;1961;-39
2023/03/27 02:54:47;;;;;;;;;;;;;;;;;;5116600;27;2044;-39
2023/03/27 02:57:19;;;;;;;;;;;;;;;;;;5098627;28;1682;-39
2023/03/27 03:00:19;;;;;;;;;;;;;;;;;;5115162;27;1890;-37
2023/03/27 03:02:59;;;;;;;;;;;;;;;;;;5116021;27;1997;-40
2023/03/27 03:05:26;;;;;;;;;;;;;;;;;;5116423;27;1909;-39
2023/03/27 03:07:56;;;;;;;;;;;;;;;;;;5116263;27;2663;-40
2023/03/27 03:10:25;;;;;;;;;;;;;;;;;;5116077;27;2176;-44
2023/03/27 03:12:52;;;;;;;;;;;;;;;;;;5134852;27;2167;-38
2023/03/27 03:15:20;;;;;;;;;;;;;;;;;;5134867;27;2021;-39
2023/03/27 03:17:47;;;;;;;;;;;;;;;;;;5115758;27;1897;-39
2023/03/27 03:20:15;;;;;;;;;;;;;;;;;;5116069;27;2465;-40
2023/03/27 03:22:43;;;;;;;;;;;;;;;;;;5134512;27;2150;-41
2023/03/27 03:25:14;;;;;;;;;;;;;;;;;;5115136;27;2212;-39
2023/03/27 03:27:42;;;;;;;;;;;;;;;;;;5134210;27;2175;-41
2023/03/27 03:30:11;;;;;;;;;;;;;;;;;;5115820;27;1978;-38
2023/03/27 03:32:49;;;;;;;;;;;;;;;;;;5116117;27;1979;-39
2023/03/27 03:35:17;;;;;;;;;;;;;;;;;;5134275;27;1933;-39
2023/03/27 03:37:47;;;;;;;;;;;;;;;;;;5134351;27;2127;-40
2023/03/27 03:40:17;;;;;;;;;;;;;;;;;;5115734;27;2059;-40
2023/03/27 03:42:47;;;;;;;;;;;;;;;;;;5132909;27;1983;-40
2023/03/27 03:45:16;;;;;;;;;;;;;;;;;;5115434;27;1976;-39
2023/03/27 03:47:44;;;;;;;;;;;;;;;;;;5134201;27;2071;-39
2023/03/27 03:50:12;;;;;;;;;;;;;;;;;;5133814;27;1908;-38
2023/03/27 03:52:40;;;;;;;;;;;;;;;;;;5132417;27;2119;-40
2023/03/27 03:55:11;;;;;;;;;;;;;;;;;;5115412;27;1971;-39
2023/03/27 03:57:38;;;;;;;;;;;;;;;;;;5113253;28;2069;-39
2023/03/27 04:00:15;;;;;;;;;;;;;;;;;;5094892;28;2037;-40
2023/03/27 04:02:43;;;;;;;;;;;;;;;;;;5113179;28;2074;-43
2023/03/27 04:05:13;;;;;;;;;;;;;;;;;;5093689;28;2221;-40
2023/03/27 04:07:41;;;;;;;;;;;;;;;;;;5112906;28;1947;-39
2023/03/27 04:10:17;;;;;;;;;;;;;;;;;;5112924;28;2158;-39
2023/03/27 04:12:46;;;;;;;;;;;;;;;;;;5094606;28;1949;-39
2023/03/27 04:15:18;;;;;;;;;;;;;;;;;;5094715;28;2079;-40
2023/03/27 04:18:03;;;;;;;;;;;;;;;;;;5090394;28;10189;-40
2023/03/27 04:20:33;;;;;;;;;;;;;;;;;;5094452;28;2236;-46
2023/03/27 04:23:03;;;;;;;;;;;;;;;;;;5094428;28;1769;-44
2023/03/27 04:25:35;;;;;;;;;;;;;;;;;;5112847;28;1928;-39
2023/03/27 04:28:03;;;;;;;;;;;;;;;;;;5094312;28;1939;-47
2023/03/27 04:30:37;;;;;;;;;;;;;;;;;;5094220;28;2031;-39
2023/03/27 04:33:23;;;;;;;;;;;;;;;;;;5112697;28;1866;-42
2023/03/27 04:36:16;;;;;;;;;;;;;;;;;;5094294;28;2076;-39
2023/03/27 04:39:03;;;;;;;;;;;;;;;;;;5093718;28;1989;-39
2023/03/27 04:41:31;;;;;;;;;;;;;;;;;;5094145;28;2036;-38
2023/03/27 04:43:59;;;;;;;;;;;;;;;;;;5094518;28;2076;-41
2023/03/27 04:46:28;;;;;;;;;;;;;;;;;;5079726;28;2451;-40
2023/03/27 04:49:01;;;;;;;;;;;;;;;;;;5070145;28;1906;-39
2023/03/27 04:51:45;;;;;;;;;;;;;;;;;;5070109;28;2169;-39
2023/03/27 04:54:13;;;;;;;;;;;;;;;;;;5070136;28;2156;-40
2023/03/27 04:56:44;;;;;;;;;;;;;;;;;;5067118;28;1835;-38
2023/03/27 04:59:12;;;;;;;;;;;;;;;;;;5091874;28;2171;-39
2023/03/27 05:01:39;;;;;;;;;;;;;;;;;;5090457;28;1927;-39
2023/03/27 05:04:29;;;;;;;;;;;;;;;;;;5107561;28;1918;-43
2023/03/27 05:07:09;;;;;;;;;;;;;;;;;;5090390;28;2037;-39
2023/03/27 05:09:36;;;;;;;;;;;;;;;;;;5090318;28;1979;-39
2023/03/27 05:12:05;;;;;;;;;;;;;;;;;;5090181;28;2077;-40
2023/03/27 05:14:37;;;;;;;;;;;;;;;;;;5090193;28;1936;-40
2023/03/27 05:17:14;;;;;;;;;;;;;;;;;;5090216;28;2004;-53
2023/03/27 05:19:44;;;;;;;;;;;;;;;;;;5090001;28;2009;-45
2023/03/27 05:22:12;;;;;;;;;;;;;;;;;;5090100;28;1891;-40
2023/03/27 05:24:48;;;;;;;;;;;;;;;;;;5089994;28;1985;-52
2023/03/27 05:27:15;;;;;;;;;;;;;;;;;;5090261;28;2446;-40
2023/03/27 05:29:46;;;;;;;;;;;;;;;;;;5089982;28;1837;-51
2023/03/27 05:32:15;;;;;;;;;;;;;;;;;;5089775;28;2083;-39
2023/03/27 05:34:49;;;;;;;;;;;;;;;;;;5089588;28;2144;-47
2023/03/27 05:37:18;;;;;;;;;;;;;;;;;;5089833;28;2057;-40
2023/03/27 05:40:21;;;;;;;;;;;;;;;;;;5067937;28;2318;-40
2023/03/27 05:42:49;;;;;;;;;;;;;;;;;;5091297;28;1952;-42
2023/03/27 05:45:17;;;;;;;;;;;;;;;;;;5091430;28;2093;-42
2023/03/27 05:47:46;;;;;;;;;;;;;;;;;;5113878;28;2069;-41
2023/03/27 05:50:18;;;;;;;;;;;;;;;;;;5131848;28;2242;-40
2023/03/27 05:52:45;;;;;;;;;;;;;;;;;;5113584;28;2026;-40
2023/03/27 05:55:13;;;;;;;;;;;;;;;;;;5112960;28;1968;-40
2023/03/27 05:57:41;;;;;;;;;;;;;;;;;;5093049;28;2438;-40
2023/03/27 06:00:12;;;;;;;;;;;;;;;;;;5093108;28;1910;-42
2023/03/27 06:02:45;;;;;;;;;;;;;;;;;;5111377;28;2072;-51
2023/03/27 06:05:15;;;;;;;;;;;;;;;;;;5093141;28;2147;-50
2023/03/27 06:07:47;;;;;;;;;;;;;;;;;;5093080;28;1889;-40
2023/03/27 06:10:19;;;;;;;;;;;;;;;;;;5092798;28;1873;-40
2023/03/27 06:13:02;;;;;;;;;;;;;;;;;;5111378;28;2034;-42
2023/03/27 06:15:42;;;;;;;;;;;;;;;;;;5092856;28;1819;-50
2023/03/27 06:18:46;;;;;;;;;;;;;;;;;;5086925;28;1984;-40
2023/03/27 06:21:16;;;;;;;;;;;;;;;;;;5111204;28;2023;-40
2023/03/27 06:23:44;;;;;;;;;;;;;;;;;;5093006;28;1974;-40
2023/03/27 06:26:14;;;;;;;;;;;;;;;;;;5092662;28;2209;-41
2023/03/27 06:28:42;;;;;;;;;;;;;;;;;;5095799;28;2029;-47
2023/03/27 06:31:11;;;;;;;;;;;;;;;;;;5114753;28;2080;-40
2023/03/27 06:33:42;;;;;;;;;;;;;;;;;;5114906;28;1988;-50
2023/03/27 06:36:23;;;;;;;;;;;;;;;;;;5096751;28;2114;-53
2023/03/27 06:38:53;;;;;;;;;;;;;;;;;;5096625;28;1980;-57
2023/03/27 06:41:20;;;;;;;;;;;;;;;;;;5096292;28;1952;-58
2023/03/27 06:44:08;;;;;;;;;;;;;;;;;;5096130;28;1797;-40
2023/03/27 06:46:58;;;;;;;;;;;;;;;;;;5096273;28;2179;-48
2023/03/27 06:49:33;;;;;;;;;;;;;;;;;;5096767;28;1929;-48
2023/03/27 06:52:08;;;;;;;;;;;;;;;;;;5096208;28;2014;-55
2023/03/27 06:54:36;;;;;;;;;;;;;;;;;;5114480;28;1883;-54
2023/03/27 06:57:03;;;;;;;;;;;;;;;;;;5130614;27;2246;-40
2023/03/27 06:59:43;;;;;;;;;;;;;;;;;;5116614;27;1930;-44
2023/03/27 07:02:10;;;;;;;;;;;;;;;;;;5116693;27;1845;-49
2023/03/27 07:05:09;;;;;;;;;;;;;;;;;;5134716;27;2003;-41
2023/03/27 07:07:39;;;;;;;;;;;;;;;;;;5116471;27;2173;-41
2023/03/27 07:10:09;;;;;;;;;;;;;;;;;;5116389;27;2043;-56
2023/03/27 07:12:39;;;;;;;;;;;;;;;;;;5116244;27;2052;-43
2023/03/27 07:15:07;;;;;;;;;;;;;;;;;;5116346;27;1977;-55
2023/03/27 07:17:35;;;;;;;;;;;;;;;;;;5116452;27;1934;-59
2023/03/27 07:20:15;;;;;;;;;;;;;;;;;;5116012;27;1912;-56
2023/03/27 07:22:42;;;;;;;;;;;;;;;;;;5115966;27;1952;-54
2023/03/27 07:25:21;;;;;;;;;;;;;;;;;;5115803;27;2060;-40
2023/03/27 07:27:49;;;;;;;;;;;;;;;;;;5115886;27;1831;-41
2023/03/27 07:30:17;;;;;;;;;;;;;;;;;;5115954;27;2008;-40
2023/03/27 07:32:45;;;;;;;;;;;;;;;;;;5115862;27;2094;-57
2023/03/27 07:35:13;;;;;;;;;;;;;;;;;;5115908;27;1962;-55
2023/03/27 07:38:19;;;;;;;;;;;;;;;;;;5070208;28;2175;-47
2023/03/27 07:41:05;;;;;;;;;;;;;;;;;;5053813;28;2069;-40
2023/03/27 07:43:51;;;;;;;;;;;;;;;;;;5116916;27;1708;-40
2023/03/27 07:46:22;;;;;;;;;;;;;;;;;;5102174;28;1935;-40
2023/03/27 07:48:51;;;;;;;;;;;;;;;;;;5091782;28;1815;-40
2023/03/27 07:51:22;;;;;;;;;;;;;;;;;;5108698;28;2017;-41
2023/03/27 07:53:54;;;;;;;;;;;;;;;;;;5091759;28;1849;-40
2023/03/27 07:56:26;;;;;;;;;;;;;;;;;;5081838;28;2251;-40
2023/03/27 07:59:26;;;;;;;;;;;;;;;;;;5071400;28;1871;-40
2023/03/27 08:01:56;;;;;;;;;;;;;;;;;;5071063;28;2086;-46
2023/03/27 08:04:27;;;;;;;;;;;;;;;;;;5071309;28;2134;-59
2023/03/27 08:07:04;;;;;;;;;;;;;;;;;;5072379;28;1941;-40
2023/03/27 08:09:33;;;;;;;;;;;;;;;;;;5070972;28;1915;-56
2023/03/27 08:12:00;;;;;;;;;;;;;;;;;;5072396;28;2063;-51
2023/03/27 08:14:29;;;;;;;;;;;;;;;;;;5071219;28;1843;-41
2023/03/27 08:17:01;;;;;;;;;;;;;;;;;;5071224;28;1886;-41
2023/03/27 08:19:44;;;;;;;;;;;;;;;;;;5070980;28;1565;-42
2023/03/27 08:22:12;;;;;;;;;;;;;;;;;;5071171;28;2148;-40
2023/03/27 08:24:58;;;;;;;;;;;;;;;;;;5072246;28;2052;-40
2023/03/27 08:27:26;;;;;;;;;;;;;;;;;;5070560;28;2260;-41
2023/03/27 08:29:53;;;;;;;;;;;;;;;;;;5070520;28;1671;-41
2023/03/27 08:32:20;;;;;;;;;;;;;;;;;;5070356;28;2067;-43
2023/03/27 08:34:50;;;;;;;;;;;;;;;;;;5070637;28;1955;-41
2023/03/27 08:37:21;;;;;;;;;;;;;;;;;;5070567;28;1948;-41
2023/03/27 08:40:24;;;;;;;;;;;;;;;;;;5066083;28;1961;-41
2023/03/27 08:43:14;;;;;;;;;;;;;;;;;;5070613;28;1834;-40
2023/03/27 08:45:45;;;;;;;;;;;;;;;;;;5080607;28;1943;-41
2023/03/27 08:48:38;;;;;;;;;;;;;;;;;;5112544;28;1985;-40
2023/03/27 08:51:13;;;;;;;;;;;;;;;;;;5095071;28;1963;-40
2023/03/27 08:53:44;;;;;;;;;;;;;;;;;;5110896;28;2288;-47
2023/03/27 08:56:13;;;;;;;;;;;;;;;;;;5120903;27;2079;-56
2023/03/27 08:58:44;;;;;;;;;;;;;;;;;;5114424;27;2011;-44
2023/03/27 09:01:25;;;;;;;;;;;;;;;;;;5113987;27;2351;-44
2023/03/27 09:03:58;;;;;;;;;;;;;;;;;;5113926;27;2125;-41
2023/03/27 09:06:56;;;;;;;;;;;;;;;;;;5113962;27;2074;-41
2023/03/27 09:09:30;;;;;;;;;;;;;;;;;;5127159;27;1873;-41
2023/03/27 09:12:16;;;;;;;;;;;;;;;;;;5113971;27;2113;-46
2023/03/27 09:14:49;;;;;;;;;;;;;;;;;;5114164;27;2012;-41
2023/03/27 09:17:22;;;;;;;;;;;;;;;;;;5113871;27;1891;-40
2023/03/27 09:19:54;;;;;;;;;;;;;;;;;;5132135;27;1921;-46
2023/03/27 09:22:28;;;;;;;;;;;;;;;;;;5113432;27;2116;-49
2023/03/27 09:25:09;;;;;;;;;;;;;;;;;;5113608;27;1886;-41
2023/03/27 09:28:17;;;;;;;;;;;;;;;;;;5118081;27;1581;-41
2023/03/27 09:30:52;;;;;;;;;;;;;;;;;;5113695;27;2015;-40
2023/03/27 09:33:25;;;;;;;;;;;;;;;;;;5113317;28;2002;-41
2023/03/27 09:35:53;;;;;;;;;;;;;;;;;;5113590;28;1830;-41
2023/03/27 09:38:23;;;;;;;;;;;;;;;;;;5113206;27;2055;-40
2023/03/27 09:40:59;;;;;;;;;;;;;;;;;;5113561;28;2009;-44
2023/03/27 09:43:36;;;;;;;;;;;;;;;;;;5113470;28;2009;-42
2023/03/27 09:46:05;;;;;;;;;;;;;;;;;;5113205;28;2024;-41
2023/03/27 09:48:33;;;;;;;;;;;;;;;;;;5113543;28;1991;-58
2023/03/27 09:51:27;;;;;;;;;;;;;;;;;;5113179;28;2027;-59
2023/03/27 09:53:57;;;;;;;;;;;;;;;;;;5131797;28;2078;-56
2023/03/27 09:56:29;;;;;;;;;;;;;;;;;;5111444;28;2019;-40
2023/03/27 09:58:57;;;;;;;;;;;;;;;;;;5113307;28;1909;-45
2023/03/27 10:01:27;;;;;;;;;;;;;;;;;;5113321;27;2026;-45
2023/03/27 10:04:09;;;;;;;;;;;;;;;;;;5117001;27;2218;-47
2023/03/27 10:06:58;;;;;;;;;;;;;;;;;;5117468;27;1945;-42
2023/03/27 10:09:43;;;;;;;;;;;;;;;;;;5117263;27;2073;-40
2023/03/27 10:12:16;;;;;;;;;;;;;;;;;;5117116;27;2165;-41
2023/03/27 10:14:47;;;;;;;;;;;;;;;;;;5117738;27;1934;-57
2023/03/27 10:17:25;;;;;;;;;;;;;;;;;;5135821;27;2039;-41
2023/03/27 10:20:10;;;;;;;;;;;;;;;;;;5116991;27;1882;-41
2023/03/27 10:22:41;;;;;;;;;;;;;;;;;;5117174;27;2076;-52
2023/03/27 10:25:17;;;;;;;;;;;;;;;;;;5117095;27;1971;-56
2023/03/27 10:28:09;;;;;;;;;;;;;;;;;;5111275;28;2147;-44
2023/03/27 10:31:00;;;;;;;;;;;;;;;;;;5114754;28;1822;-40
2023/03/27 10:33:47;;;;;;;;;;;;;;;;;;5095964;28;1992;-40
2023/03/27 10:36:20;;;;;;;;;;;;;;;;;;5095477;28;1921;-40
2023/03/27 10:38:52;;;;;;;;;;;;;;;;;;5096375;28;2049;-40
2023/03/27 10:41:33;;;;;;;;;;;;;;;;;;5114655;28;2003;-40
2023/03/27 10:44:03;;;;;;;;;;;;;;;;;;5096214;28;1846;-40
2023/03/27 10:46:31;;;;;;;;;;;;;;;;;;5096190;28;2173;-40
2023/03/27 10:49:06;;;;;;;;;;;;;;;;;;5095297;28;2112;-39
2023/03/27 10:51:53;;;;;;;;;;;;;;;;;;5114552;28;1944;-40
2023/03/27 10:54:50;;;;;;;;;;;;;;;;;;5075870;28;2103;-40
2023/03/27 10:57:17;;;;;;;;;;;;;;;;;;5132446;27;2049;-39
2023/03/27 10:59:50;;;;;;;;;;;;;;;;;;5135031;27;1832;-41
2023/03/27 11:02:45;;;;;;;;;;;;;;;;;;5116151;27;2037;-40
2023/03/27 11:05:15;;;;;;;;;;;;;;;;;;5116366;27;2318;-40
2023/03/27 11:07:49;;;;;;;;;;;;;;;;;;5134846;27;1990;-53
2023/03/27 11:10:22;;;;;;;;;;;;;;;;;;5115965;27;1610;-40
2023/03/27 11:12:53;;;;;;;;;;;;;;;;;;5116139;27;2102;-40
2023/03/27 11:15:29;;;;;;;;;;;;;;;;;;5116209;27;2155;-40
2023/03/27 11:18:00;;;;;;;;;;;;;;;;;;5134772;27;1888;-58
2023/03/27 11:20:38;;;;;;;;;;;;;;;;;;5115915;27;2037;-41
2023/03/27 11:23:54;;;;;;;;;;;;;;;;;;5118031;27;2126;-41
2023/03/27 11:26:32;;;;;;;;;;;;;;;;;;5115981;27;1947;-41
2023/03/27 11:29:14;;;;;;;;;;;;;;;;;;5115788;27;1947;-40
2023/03/27 11:31:49;;;;;;;;;;;;;;;;;;5115727;27;1951;-40
2023/03/27 11:34:31;;;;;;;;;;;;;;;;;;5134323;27;1927;-39
2023/03/27 11:37:33;;;;;;;;;;;;;;;;;;5134139;27;1844;-40
2023/03/27 11:40:01;;;;;;;;;;;;;;;;;;5115670;27;2079;-40
2023/03/27 11:42:31;;;;;;;;;;;;;;;;;;5115628;27;2019;-39
2023/03/27 11:45:03;;;;;;;;;;;;;;;;;;5115475;27;2046;-41
2023/03/27 11:47:44;;;;;;;;;;;;;;;;;;5115344;27;1941;-40
2023/03/27 11:50:17;;;;;;;;;;;;;;;;;;5115378;27;2143;-40
2023/03/27 11:52:56;;;;;;;;;;;;;;;;;;5133731;27;1978;-41
2023/03/27 11:55:49;;;;;;;;;;;;;;;;;;5128455;27;1843;-40
2023/03/27 11:58:34;;;;;;;;;;;;;;;;;;5094801;28;1956;-39
2023/03/27 12:01:18;;;;;;;;;;;;;;;;;;5113131;28;1909;-53
2023/03/27 12:04:05;;;;;;;;;;;;;;;;;;5094904;28;2035;-40
2023/03/27 12:07:05;;;;;;;;;;;;;;;;;;5094700;28;2121;-40
2023/03/27 12:09:38;;;;;;;;;;;;;;;;;;5094695;28;2237;-40
2023/03/27 12:12:42;;;;;;;;;;;;;;;;;;5113246;28;1933;-40
2023/03/27 12:15:26;;;;;;;;;;;;;;;;;;5094478;28;1961;-41
2023/03/27 12:18:03;;;;;;;;;;;;;;;;;;5094773;28;2176;-40
2023/03/27 12:20:35;;;;;;;;;;;;;;;;;;5094328;28;1987;-55
2023/03/27 12:23:16;;;;;;;;;;;;;;;;;;5094403;28;1949;-40
2023/03/27 12:26:13;;;;;;;;;;;;;;;;;;5111643;28;2139;-40
2023/03/27 12:29:16;;;;;;;;;;;;;;;;;;5099010;28;1854;-40
2023/03/27 12:32:15;;;;;;;;;;;;;;;;;;5094192;28;1963;-41
2023/03/27 12:34:51;;;;;;;;;;;;;;;;;;5094326;28;2163;-40
2023/03/27 12:37:24;;;;;;;;;;;;;;;;;;5094172;28;1941;-40
2023/03/27 12:39:55;;;;;;;;;;;;;;;;;;5094164;28;1851;-40
2023/03/27 12:42:41;;;;;;;;;;;;;;;;;;5094130;28;2111;-40
2023/03/27 12:45:18;;;;;;;;;;;;;;;;;;5093636;28;1919;-58
2023/03/27 12:48:04;;;;;;;;;;;;;;;;;;5093947;28;1933;-57
2023/03/27 12:50:39;;;;;;;;;;;;;;;;;;5093986;28;2268;-40
2023/03/27 12:53:17;;;;;;;;;;;;;;;;;;5094227;28;2190;-40
2023/03/27 12:55:44;;;;;;;;;;;;;;;;;;5112092;28;2027;-44
2023/03/27 12:58:31;;;;;;;;;;;;;;;;;;5093741;28;2149;-50
2023/03/27 13:01:30;;;;;;;;;;;;;;;;;;5100885;28;1914;-42
2023/03/27 13:04:28;;;;;;;;;;;;;;;;;;5093775;28;2053;-43
2023/03/27 13:07:15;;;;;;;;;;;;;;;;;;5110801;28;2045;-40
2023/03/27 13:10:23;;;;;;;;;;;;;;;;;;5093545;28;1956;-52
2023/03/27 13:12:51;;;;;;;;;;;;;;;;;;5093535;28;1984;-40
2023/03/27 13:15:18;;;;;;;;;;;;;;;;;;5093213;28;2109;-40
2023/03/27 13:17:49;;;;;;;;;;;;;;;;;;5110430;28;2083;-41
2023/03/27 13:20:33;;;;;;;;;;;;;;;;;;5111718;28;1845;-41
2023/03/27 13:23:21;;;;;;;;;;;;;;;;;;5093363;28;2179;-41
2023/03/27 13:26:01;;;;;;;;;;;;;;;;;;5092981;28;1986;-41
2023/03/27 13:28:35;;;;;;;;;;;;;;;;;;5093212;28;2023;-40
2023/03/27 13:31:10;;;;;;;;;;;;;;;;;;5093390;28;1968;-40
2023/03/27 13:33:39;;;;;;;;;;;;;;;;;;5111495;28;1982;-43
2023/03/27 13:36:18;;;;;;;;;;;;;;;;;;5110041;28;1955;-40
2023/03/27 13:38:51;;;;;;;;;;;;;;;;;;5111640;28;2008;-41
2023/03/27 13:41:39;;;;;;;;;;;;;;;;;;5093320;28;2044;-54
2023/03/27 13:44:26;;;;;;;;;;;;;;;;;;5093223;28;2108;-41
2023/03/27 13:47:03;;;;;;;;;;;;;;;;;;5111489;28;1869;-40
2023/03/27 13:49:35;;;;;;;;;;;;;;;;;;5110453;28;2003;-40
2023/03/27 13:52:27;;;;;;;;;;;;;;;;;;5093021;28;2190;-42
2023/03/27 13:55:00;;;;;;;;;;;;;;;;;;5092695;28;1971;-41
2023/03/27 13:57:44;;;;;;;;;;;;;;;;;;5113194;28;1803;-41
2023/03/27 14:00:12;;;;;;;;;;;;;;;;;;5131892;28;1744;-41
2023/03/27 14:02:48;;;;;;;;;;;;;;;;;;5131621;28;2021;-40
2023/03/27 14:05:21;;;;;;;;;;;;;;;;;;5113219;28;1974;-41
2023/03/27 14:08:14;;;;;;;;;;;;;;;;;;5102526;28;2292;-55
2023/03/27 14:11:08;;;;;;;;;;;;;;;;;;5111440;28;1832;-41
2023/03/27 14:13:55;;;;;;;;;;;;;;;;;;5091847;28;2127;-42
2023/03/27 14:16:43;;;;;;;;;;;;;;;;;;5111297;28;2196;-40
2023/03/27 14:19:21;;;;;;;;;;;;;;;;;;5111089;28;1929;-41
2023/03/27 14:21:55;;;;;;;;;;;;;;;;;;5092921;28;2022;-41
2023/03/27 14:24:31;;;;;;;;;;;;;;;;;;5092781;28;1913;-40
2023/03/27 14:27:11;;;;;;;;;;;;;;;;;;5109732;28;2055;-41
2023/03/27 14:29:39;;;;;;;;;;;;;;;;;;5111164;28;1992;-46
2023/03/27 14:32:11;;;;;;;;;;;;;;;;;;5109397;28;2111;-41
2023/03/27 14:34:45;;;;;;;;;;;;;;;;;;5110178;28;1937;-50
2023/03/27 14:37:34;;;;;;;;;;;;;;;;;;5092996;28;1985;-40
2023/03/27 14:40:18;;;;;;;;;;;;;;;;;;5092751;28;2043;-49
2023/03/27 14:42:48;;;;;;;;;;;;;;;;;;5092578;28;2006;-40
2023/03/27 14:45:20;;;;;;;;;;;;;;;;;;5113237;27;2053;-40
2023/03/27 14:47:52;;;;;;;;;;;;;;;;;;5116590;27;2085;-41
2023/03/27 14:50:21;;;;;;;;;;;;;;;;;;5137211;27;2035;-41
2023/03/27 14:52:51;;;;;;;;;;;;;;;;;;5137243;27;2218;-45
2023/03/27 14:55:18;;;;;;;;;;;;;;;;;;5154473;27;1949;-41
2023/03/27 14:57:55;;;;;;;;;;;;;;;;;;5116368;27;1974;-40
2023/03/27 15:00:28;;;;;;;;;;;;;;;;;;5116461;27;1383;-47
2023/03/27 15:03:02;;;;;;;;;;;;;;;;;;5134754;27;1915;-49
2023/03/27 15:05:30;;;;;;;;;;;;;;;;;;5116124;27;2070;-41
2023/03/27 15:08:01;;;;;;;;;;;;;;;;;;5116136;27;2046;-40
2023/03/27 15:10:57;;;;;;;;;;;;;;;;;;5121039;27;1956;-59
2023/03/27 15:13:43;;;;;;;;;;;;;;;;;;5116299;27;1976;-57
2023/03/27 15:16:24;;;;;;;;;;;;;;;;;;5116085;27;1937;-41
2023/03/27 15:19:03;;;;;;;;;;;;;;;;;;5134614;27;1803;-59
2023/03/27 15:21:51;;;;;;;;;;;;;;;;;;5116053;27;1835;-49
2023/03/27 15:24:19;;;;;;;;;;;;;;;;;;5116040;27;2030;-46
2023/03/27 15:26:48;;;;;;;;;;;;;;;;;;5115932;27;2126;-40
2023/03/27 15:29:21;;;;;;;;;;;;;;;;;;5134160;27;1993;-44
2023/03/27 15:31:48;;;;;;;;;;;;;;;;;;5133077;27;2165;-41
2023/03/27 15:34:24;;;;;;;;;;;;;;;;;;5134051;27;1915;-40
2023/03/27 15:36:54;;;;;;;;;;;;;;;;;;5133978;27;2183;-58
2023/03/27 15:39:21;;;;;;;;;;;;;;;;;;5134371;27;2111;-47
2023/03/27 15:41:49;;;;;;;;;;;;;;;;;;5133777;27;1914;-40
2023/03/27 15:44:21;;;;;;;;;;;;;;;;;;5134188;27;1885;-49
2023/03/27 15:46:49;;;;;;;;;;;;;;;;;;5133892;27;1984;-39
2023/03/27 15:49:29;;;;;;;;;;;;;;;;;;5134115;27;1866;-41
2023/03/27 15:51:56;;;;;;;;;;;;;;;;;;5133902;27;1891;-42
2023/03/27 15:54:29;;;;;;;;;;;;;;;;;;5133853;27;2027;-41
2023/03/27 15:56:57;;;;;;;;;;;;;;;;;;5100440;28;2071;-41
2023/03/27 15:59:36;;;;;;;;;;;;;;;;;;5112369;28;1844;-41
2023/03/27 16:02:18;;;;;;;;;;;;;;;;;;5113014;28;2102;-45
2023/03/27 16:04:54;;;;;;;;;;;;;;;;;;5117232;27;2122;-42
2023/03/27 16:07:24;;;;;;;;;;;;;;;;;;5133672;27;2175;-42
2023/03/27 16:09:57;;;;;;;;;;;;;;;;;;5132983;27;2179;-43
2023/03/27 16:12:27;;;;;;;;;;;;;;;;;;5133589;27;2042;-44
2023/03/27 16:14:58;;;;;;;;;;;;;;;;;;5133385;27;2081;-41
2023/03/27 16:17:37;;;;;;;;;;;;;;;;;;5133586;27;1938;-40
2023/03/27 16:20:11;;;;;;;;;;;;;;;;;;5133494;27;1887;-42
2023/03/27 16:22:39;;;;;;;;;;;;;;;;;;5133699;27;1916;-40
2023/03/27 16:25:10;;;;;;;;;;;;;;;;;;5133283;27;1949;-41
2023/03/27 16:27:57;;;;;;;;;;;;;;;;;;5133939;27;1931;-40
2023/03/27 16:30:28;;;;;;;;;;;;;;;;;;5133148;27;2022;-40
2023/03/27 16:32:55;;;;;;;;;;;;;;;;;;5133220;27;1719;-42
2023/03/27 16:35:22;;;;;;;;;;;;;;;;;;5132795;27;1922;-43
2023/03/27 16:37:50;;;;;;;;;;;;;;;;;;5132982;27;1858;-40
2023/03/27 16:40:18;;;;;;;;;;;;;;;;;;5132757;27;1990;-42
2023/03/27 16:42:46;;;;;;;;;;;;;;;;;;5132847;27;1884;-40
2023/03/27 16:45:13;;;;;;;;;;;;;;;;;;5131863;27;1767;-41
2023/03/27 16:47:40;;;;;;;;;;;;;;;;;;5118188;27;1992;-41
2023/03/27 16:50:13;;;;;;;;;;;;;;;;;;5111737;28;2015;-43
2023/03/27 16:52:41;;;;;;;;;;;;;;;;;;5112094;28;1946;-44
2023/03/27 16:55:08;;;;;;;;;;;;;;;;;;5111928;28;2039;-44
2023/03/27 16:57:35;;;;;;;;;;;;;;;;;;5111978;27;1926;-40
2023/03/27 17:00:04;;;;;;;;;;;;;;;;;;5132400;27;2272;-41
2023/03/27 17:02:32;;;;;;;;;;;;;;;;;;5132605;27;1968;-48
2023/03/27 17:05:00;;;;;;;;;;;;;;;;;;5132790;27;1784;-41
2023/03/27 17:07:29;;;;;;;;;;;;;;;;;;5132733;27;2099;-40
2023/03/27 17:09:56;;;;;;;;;;;;;;;;;;5132541;27;1927;-44
2023/03/27 17:12:23;;;;;;;;;;;;;;;;;;5132020;27;2159;-45
2023/03/27 17:14:51;;;;;;;;;;;;;;;;;;5132217;27;1915;-43
2023/03/27 17:17:18;;;;;;;;;;;;;;;;;;5132124;27;1818;-41
2023/03/27 17:19:45;;;;;;;;;;;;;;;;;;5132382;27;2207;-45
2023/03/27 17:22:13;;;;;;;;;;;;;;;;;;5132706;27;2358;-41
2023/03/27 17:24:40;;;;;;;;;;;;;;;;;;5132280;27;2113;-44
2023/03/27 17:27:22;;;;;;;;;;;;;;;;;;5116388;27;2136;-46
2023/03/27 17:29:52;;;;;;;;;;;;;;;;;;5113552;27;2334;-42
2023/03/27 17:32:19;;;;;;;;;;;;;;;;;;5132056;27;2066;-41
2023/03/27 17:34:47;;;;;;;;;;;;;;;;;;5132416;27;1998;-41
2023/03/27 17:37:15;;;;;;;;;;;;;;;;;;5132508;27;2294;-41
2023/03/27 17:39:42;;;;;;;;;;;;;;;;;;5132292;27;2052;-41
2023/03/27 17:42:09;;;;;;;;;;;;;;;;;;5132038;27;1967;-40
2023/03/27 17:44:37;;;;;;;;;;;;;;;;;;5113656;28;1989;-42
2023/03/27 17:47:06;;;;;;;;;;;;;;;;;;5131862;28;1948;-41
2023/03/27 17:49:33;;;;;;;;;;;;;;;;;;5113404;28;1981;-43
2023/03/27 17:52:06;;;;;;;;;;;;;;;;;;5132546;28;1984;-41
2023/03/27 17:54:33;;;;;;;;;;;;;;;;;;5131756;28;2004;-42
2023/03/27 17:57:01;;;;;;;;;;;;;;;;;;5116063;28;2013;-41